sensor_id;sensor_type;location;lat;lon;timestamp;temperature;humidity
52471;DHT22;38382;53.160;7.026;2022-12-24T08:10:02;10.60;99.90
52471;DHT22;38382;53.160;7.026;2022-12-24T08:12:28;8.00;99.90
52471;DHT22;38382;53.160;7.026;2022-12-24T08:14:53;7.80;99.90
52471;DHT22;38382;53.160;7.026;2022-12-24T08:17:22;7.80;99.90
52471;DHT22;38382;53.160;7.026;2022-12-24T08:19:48;7.90;99.90
52471;DHT22;38382;53.160;7.026;2022-12-24T08:22:14;7.80;99.90
52471;DHT22;38382;53.160;7.026;2022-12-24T08:24:40;7.70;99.90
52471;DHT22;38382;53.160;7.026;2022-12-24T08:27:06;7.60;99.90
52471;DHT22;38382;53.160;7.026;2022-12-24T08:29:31;7.70;99.90
52471;DHT22;38382;53.160;7.026;2022-12-24T08:31:57;7.70;99.90
52471;DHT22;38382;53.160;7.026;2022-12-24T08:34:23;7.70;99.90
52471;DHT22;38382;53.160;7.026;2022-12-24T08:36:48;7.70;99.90
52471;DHT22;38382;53.160;7.026;2022-12-24T08:39:14;7.80;99.90
52471;DHT22;38382;53.160;7.026;2022-12-24T08:41:40;7.80;99.90
52471;DHT22;38382;53.160;7.026;2022-12-24T08:44:05;7.80;99.90
52471;DHT22;38382;53.160;7.026;2022-12-24T08:46:31;7.90;99.90
52471;DHT22;38382;53.160;7.026;2022-12-24T08:48:57;7.90;99.90
52471;DHT22;38382;53.160;7.026;2022-12-24T08:51:23;8.00;99.90
52471;DHT22;38382;53.160;7.026;2022-12-24T08:53:48;8.10;99.90
52471;DHT22;38382;53.160;7.026;2022-12-24T08:56:15;8.10;99.90
52471;DHT22;38382;53.160;7.026;2022-12-24T08:58:40;8.10;99.90
52471;DHT22;38382;53.160;7.026;2022-12-24T09:01:12;8.10;99.90
52471;DHT22;38382;53.160;7.026;2022-12-24T09:03:38;8.30;99.90
52471;DHT22;38382;53.160;7.026;2022-12-24T09:06:04;8.20;99.90
52471;DHT22;38382;53.160;7.026;2022-12-24T09:08:31;8.20;99.90
52471;DHT22;38382;53.160;7.026;2022-12-24T09:11:12;8.20;99.90
52471;DHT22;38382;53.160;7.026;2022-12-24T09:13:38;8.20;99.90
52471;DHT22;38382;53.160;7.026;2022-12-24T09:16:05;8.30;99.90
52471;DHT22;38382;53.160;7.026;2022-12-24T09:18:31;8.30;99.90
52471;DHT22;38382;53.160;7.026;2022-12-24T09:21:02;8.30;99.90
52471;DHT22;38382;53.160;7.026;2022-12-24T09:23:29;8.40;99.90
52471;DHT22;38382;53.160;7.026;2022-12-24T09:25:56;8.40;99.90
52471;DHT22;38382;53.160;7.026;2022-12-24T09:28:22;8.40;99.90
52471;DHT22;38382;53.160;7.026;2022-12-24T09:30:59;8.40;99.90
52471;DHT22;38382;53.160;7.026;2022-12-24T09:33:25;8.40;99.90
52471;DHT22;38382;53.160;7.026;2022-12-24T09:35:51;8.50;99.90
52471;DHT22;38382;53.160;7.026;2022-12-24T09:38:18;8.50;99.90
52471;DHT22;38382;53.160;7.026;2022-12-24T09:40:44;8.60;99.90
52471;DHT22;38382;53.160;7.026;2022-12-24T09:43:36;8.70;99.90
52471;DHT22;38382;53.160;7.026;2022-12-24T09:48:52;8.80;99.90
52471;DHT22;38382;53.160;7.026;2022-12-24T09:51:49;8.90;99.90
52471;DHT22;38382;53.160;7.026;2022-12-24T09:54:27;8.90;99.90
52471;DHT22;38382;53.160;7.026;2022-12-24T09:56:57;9.00;99.90
52471;DHT22;38382;53.160;7.026;2022-12-24T09:59:37;9.00;99.90
52471;DHT22;38382;53.160;7.026;2022-12-24T10:02:09;9.10;99.90
52471;DHT22;38382;53.160;7.026;2022-12-24T10:04:36;9.00;99.90
52471;DHT22;38382;53.160;7.026;2022-12-24T10:07:07;9.10;99.90
52471;DHT22;38382;53.160;7.026;2022-12-24T10:12:33;9.10;99.90
52471;DHT22;38382;53.160;7.026;2022-12-24T10:24:05;9.10;99.90
52471;DHT22;38382;53.160;7.026;2022-12-24T10:26:42;9.10;99.90
52471;DHT22;38382;53.160;7.026;2022-12-24T10:29:39;9.10;99.90
52471;DHT22;38382;53.160;7.026;2022-12-24T10:34:37;9.20;99.90
52471;DHT22;38382;53.160;7.026;2022-12-24T10:37:07;9.20;99.90
52471;DHT22;38382;53.160;7.026;2022-12-24T10:39:35;9.30;99.90
52471;DHT22;38382;53.160;7.026;2022-12-24T10:42:02;9.30;99.90
52471;DHT22;38382;53.160;7.026;2022-12-24T10:44:31;9.40;99.90
52471;DHT22;38382;53.160;7.026;2022-12-24T10:46:57;9.40;99.90
52471;DHT22;38382;53.160;7.026;2022-12-24T10:49:46;9.50;99.90
52471;DHT22;38382;53.160;7.026;2022-12-24T10:52:16;9.50;99.90
52471;DHT22;38382;53.160;7.026;2022-12-24T10:55:10;9.60;99.90
52471;DHT22;38382;53.160;7.026;2022-12-24T10:57:37;9.60;99.90
52471;DHT22;38382;53.160;7.026;2022-12-24T11:00:04;9.60;99.90
52471;DHT22;38382;53.160;7.026;2022-12-24T11:02:38;9.60;99.90
52471;DHT22;38382;53.160;7.026;2022-12-24T11:05:09;9.60;99.90
52471;DHT22;38382;53.160;7.026;2022-12-24T11:08:17;9.70;99.90
52471;DHT22;38382;53.160;7.026;2022-12-24T11:10:59;9.70;99.90
52471;DHT22;38382;53.160;7.026;2022-12-24T11:13:54;9.80;99.90
52471;DHT22;38382;53.160;7.026;2022-12-24T11:16:33;9.80;99.90
52471;DHT22;38382;53.160;7.026;2022-12-24T11:19:04;9.80;99.90
52471;DHT22;38382;53.160;7.026;2022-12-24T11:24:04;9.90;99.90
52471;DHT22;38382;53.160;7.026;2022-12-24T11:26:32;9.90;99.90
52471;DHT22;38382;53.160;7.026;2022-12-24T11:31:33;9.90;99.90
52471;DHT22;38382;53.160;7.026;2022-12-24T11:34:29;9.90;99.90
52471;DHT22;38382;53.160;7.026;2022-12-24T11:37:22;9.80;99.90
52471;DHT22;38382;53.160;7.026;2022-12-24T11:39:53;9.80;99.90
52471;DHT22;38382;53.160;7.026;2022-12-24T11:42:36;9.90;99.90
52471;DHT22;38382;53.160;7.026;2022-12-24T11:45:27;9.90;99.90
52471;DHT22;38382;53.160;7.026;2022-12-24T11:47:54;9.80;99.90
52471;DHT22;38382;53.160;7.026;2022-12-24T11:55:51;9.90;99.90
52471;DHT22;38382;53.160;7.026;2022-12-24T11:58:39;9.90;99.90
52471;DHT22;38382;53.160;7.026;2022-12-24T12:04:24;9.90;99.90
52471;DHT22;38382;53.160;7.026;2022-12-24T12:09:27;9.80;99.90
52471;DHT22;38382;53.160;7.026;2022-12-24T12:12:06;9.80;99.90
52471;DHT22;38382;53.160;7.026;2022-12-24T12:14:47;9.80;99.90
52471;DHT22;38382;53.160;7.026;2022-12-24T12:17:50;9.70;99.90
52471;DHT22;38382;53.160;7.026;2022-12-24T12:20:35;9.60;99.90
52471;DHT22;38382;53.160;7.026;2022-12-24T12:26:01;9.70;99.90
52471;DHT22;38382;53.160;7.026;2022-12-24T12:31:33;9.60;99.90
52471;DHT22;38382;53.160;7.026;2022-12-24T12:36:38;9.60;99.90
52471;DHT22;38382;53.160;7.026;2022-12-24T12:39:09;9.60;99.90
52471;DHT22;38382;53.160;7.026;2022-12-24T12:44:30;9.60;99.90
52471;DHT22;38382;53.160;7.026;2022-12-24T12:52:40;9.60;99.90
52471;DHT22;38382;53.160;7.026;2022-12-24T12:58:36;9.50;99.90
52471;DHT22;38382;53.160;7.026;2022-12-24T13:01:21;9.50;99.90
52471;DHT22;38382;53.160;7.026;2022-12-24T13:03:57;9.50;99.90
52471;DHT22;38382;53.160;7.026;2022-12-24T13:06:56;9.50;99.90
52471;DHT22;38382;53.160;7.026;2022-12-24T13:18:08;9.50;99.90
52471;DHT22;38382;53.160;7.026;2022-12-24T13:20:45;9.50;99.90
52471;DHT22;38382;53.160;7.026;2022-12-24T13:23:18;9.60;99.90
52471;DHT22;38382;53.160;7.026;2022-12-24T13:25:47;9.60;99.90
52471;DHT22;38382;53.160;7.026;2022-12-24T13:30:53;9.70;99.90
52471;DHT22;38382;53.160;7.026;2022-12-24T13:36:11;9.80;99.90
52471;DHT22;38382;53.160;7.026;2022-12-24T13:38:47;9.80;99.90
52471;DHT22;38382;53.160;7.026;2022-12-24T13:41:49;9.80;99.90
52471;DHT22;38382;53.160;7.026;2022-12-24T13:44:19;9.70;99.90
52471;DHT22;38382;53.160;7.026;2022-12-24T13:47:15;9.70;99.90
52471;DHT22;38382;53.160;7.026;2022-12-24T13:49:46;9.60;99.90
52471;DHT22;38382;53.160;7.026;2022-12-24T13:52:24;9.50;99.90
52471;DHT22;38382;53.160;7.026;2022-12-24T13:57:33;9.50;99.90
52471;DHT22;38382;53.160;7.026;2022-12-24T14:03:17;9.40;99.90
52471;DHT22;38382;53.160;7.026;2022-12-24T14:05:49;9.30;99.90
52471;DHT22;38382;53.160;7.026;2022-12-24T14:16:29;9.20;99.90
52471;DHT22;38382;53.160;7.026;2022-12-24T14:19:19;9.30;99.90
52471;DHT22;38382;53.160;7.026;2022-12-24T14:22:02;9.20;99.90
52471;DHT22;38382;53.160;7.026;2022-12-24T14:24:41;9.20;99.90
52471;DHT22;38382;53.160;7.026;2022-12-24T14:29:50;9.20;99.90
52471;DHT22;38382;53.160;7.026;2022-12-24T14:32:17;9.10;99.90
52471;DHT22;38382;53.160;7.026;2022-12-24T14:34:43;9.10;99.90
52471;DHT22;38382;53.160;7.026;2022-12-24T14:37:11;9.10;99.90
52471;DHT22;38382;53.160;7.026;2022-12-24T14:39:44;9.10;99.90
52471;DHT22;38382;53.160;7.026;2022-12-24T14:45:06;9.10;99.90
52471;DHT22;38382;53.160;7.026;2022-12-24T14:47:51;9.10;99.90
52471;DHT22;38382;53.160;7.026;2022-12-24T14:55:44;9.00;99.90
52471;DHT22;38382;53.160;7.026;2022-12-24T15:00:49;9.00;99.90
52471;DHT22;38382;53.160;7.026;2022-12-24T15:03:17;9.00;99.90
52471;DHT22;38382;53.160;7.026;2022-12-24T15:05:43;9.00;99.90
52471;DHT22;38382;53.160;7.026;2022-12-24T15:08:18;8.90;99.90
52471;DHT22;38382;53.160;7.026;2022-12-24T15:10:49;8.90;99.90
52471;DHT22;38382;53.160;7.026;2022-12-24T15:13:25;8.90;99.90
52471;DHT22;38382;53.160;7.026;2022-12-24T15:15:52;8.90;99.90
52471;DHT22;38382;53.160;7.026;2022-12-24T15:18:25;8.90;99.90
52471;DHT22;38382;53.160;7.026;2022-12-24T15:20:54;8.80;99.90
52471;DHT22;38382;53.160;7.026;2022-12-24T15:23:31;8.90;99.90
52471;DHT22;38382;53.160;7.026;2022-12-24T15:26:13;8.90;99.90
52471;DHT22;38382;53.160;7.026;2022-12-24T15:28:40;8.80;99.90
52471;DHT22;38382;53.160;7.026;2022-12-24T15:31:18;8.80;99.90
52471;DHT22;38382;53.160;7.026;2022-12-24T15:33:46;8.80;99.90
52471;DHT22;38382;53.160;7.026;2022-12-24T15:36:14;8.70;99.90
52471;DHT22;38382;53.160;7.026;2022-12-24T15:38:49;8.70;99.90
52471;DHT22;38382;53.160;7.026;2022-12-24T15:41:25;8.70;99.90
52471;DHT22;38382;53.160;7.026;2022-12-24T15:43:53;8.60;99.90
52471;DHT22;38382;53.160;7.026;2022-12-24T15:46:25;8.60;99.90
52471;DHT22;38382;53.160;7.026;2022-12-24T15:48:54;8.40;99.90
52471;DHT22;38382;53.160;7.026;2022-12-24T15:51:39;8.40;99.90
52471;DHT22;38382;53.160;7.026;2022-12-24T15:54:10;8.30;99.90
52471;DHT22;38382;53.160;7.026;2022-12-24T15:56:42;8.30;99.90
52471;DHT22;38382;53.160;7.026;2022-12-24T16:01:42;8.10;99.90
52471;DHT22;38382;53.160;7.026;2022-12-24T16:04:14;8.10;99.90
52471;DHT22;38382;53.160;7.026;2022-12-24T16:06:51;8.00;99.90
52471;DHT22;38382;53.160;7.026;2022-12-24T16:09:42;8.00;99.90
52471;DHT22;38382;53.160;7.026;2022-12-24T16:12:23;7.80;99.90
52471;DHT22;38382;53.160;7.026;2022-12-24T16:14:52;7.80;99.90
52471;DHT22;38382;53.160;7.026;2022-12-24T16:17:25;7.80;99.90
52471;DHT22;38382;53.160;7.026;2022-12-24T16:19:56;7.70;99.90
52471;DHT22;38382;53.160;7.026;2022-12-24T16:22:23;7.70;99.90
52471;DHT22;38382;53.160;7.026;2022-12-24T16:27:45;7.50;99.90
52471;DHT22;38382;53.160;7.026;2022-12-24T16:30:11;7.50;99.90
52471;DHT22;38382;53.160;7.026;2022-12-24T16:32:38;7.40;99.90
52471;DHT22;38382;53.160;7.026;2022-12-24T16:35:06;7.40;99.90
52471;DHT22;38382;53.160;7.026;2022-12-24T16:37:33;7.30;99.90
52471;DHT22;38382;53.160;7.026;2022-12-24T16:39:59;7.30;99.90
52471;DHT22;38382;53.160;7.026;2022-12-24T16:42:25;7.30;99.90
52471;DHT22;38382;53.160;7.026;2022-12-24T16:45:10;7.30;99.90
52471;DHT22;38382;53.160;7.026;2022-12-24T16:47:36;7.20;99.90
52471;DHT22;38382;53.160;7.026;2022-12-24T16:50:06;7.10;99.90
52471;DHT22;38382;53.160;7.026;2022-12-24T16:52:32;7.20;99.90
52471;DHT22;38382;53.160;7.026;2022-12-24T16:54:59;7.10;99.90
52471;DHT22;38382;53.160;7.026;2022-12-24T16:57:26;7.10;99.90
52471;DHT22;38382;53.160;7.026;2022-12-24T16:59:52;7.00;99.90
52471;DHT22;38382;53.160;7.026;2022-12-24T17:02:20;7.00;99.90
52471;DHT22;38382;53.160;7.026;2022-12-24T17:04:47;6.90;99.90
52471;DHT22;38382;53.160;7.026;2022-12-24T17:07:15;6.90;99.90
52471;DHT22;38382;53.160;7.026;2022-12-24T17:09:41;6.90;99.90
52471;DHT22;38382;53.160;7.026;2022-12-24T17:12:08;6.80;99.90
52471;DHT22;38382;53.160;7.026;2022-12-24T17:14:33;6.80;99.90
52471;DHT22;38382;53.160;7.026;2022-12-24T17:16:59;6.80;99.90
52471;DHT22;38382;53.160;7.026;2022-12-24T17:19:25;6.80;99.90
52471;DHT22;38382;53.160;7.026;2022-12-24T17:21:51;6.70;99.90
52471;DHT22;38382;53.160;7.026;2022-12-24T17:24:16;6.70;99.90
52471;DHT22;38382;53.160;7.026;2022-12-24T17:26:44;6.70;99.90
52471;DHT22;38382;53.160;7.026;2022-12-24T17:29:09;6.70;99.90
52471;DHT22;38382;53.160;7.026;2022-12-24T17:31:37;6.70;99.90
52471;DHT22;38382;53.160;7.026;2022-12-24T17:34:04;6.60;99.90
52471;DHT22;38382;53.160;7.026;2022-12-24T17:36:30;6.60;99.90
52471;DHT22;38382;53.160;7.026;2022-12-24T17:38:55;6.60;99.90
52471;DHT22;38382;53.160;7.026;2022-12-24T17:41:23;6.60;99.90
52471;DHT22;38382;53.160;7.026;2022-12-24T17:43:49;6.60;99.90
52471;DHT22;38382;53.160;7.026;2022-12-24T17:46:18;6.60;99.90
52471;DHT22;38382;53.160;7.026;2022-12-24T17:48:47;6.50;99.90
52471;DHT22;38382;53.160;7.026;2022-12-24T17:51:16;6.50;99.90
52471;DHT22;38382;53.160;7.026;2022-12-24T17:53:42;6.80;99.90
52471;DHT22;38382;53.160;7.026;2022-12-24T17:56:10;6.50;99.90
52471;DHT22;38382;53.160;7.026;2022-12-24T17:58:38;6.60;99.90
52471;DHT22;38382;53.160;7.026;2022-12-24T18:01:04;6.40;99.90
52471;DHT22;38382;53.160;7.026;2022-12-24T18:03:30;6.50;99.90
52471;DHT22;38382;53.160;7.026;2022-12-24T18:06:06;6.60;99.90
52471;DHT22;38382;53.160;7.026;2022-12-24T18:08:33;6.50;99.90
52471;DHT22;38382;53.160;7.026;2022-12-24T18:10:59;6.50;99.90
52471;DHT22;38382;53.160;7.026;2022-12-24T18:13:26;6.50;99.90
52471;DHT22;38382;53.160;7.026;2022-12-24T18:15:52;6.40;99.90
52471;DHT22;38382;53.160;7.026;2022-12-24T18:18:18;6.40;99.90
52471;DHT22;38382;53.160;7.026;2022-12-24T18:20:44;6.50;99.90
52471;DHT22;38382;53.160;7.026;2022-12-24T18:23:11;6.70;99.90
52471;DHT22;38382;53.160;7.026;2022-12-24T18:25:37;6.30;99.90
52471;DHT22;38382;53.160;7.026;2022-12-24T18:28:03;6.30;99.90
52471;DHT22;38382;53.160;7.026;2022-12-24T18:30:28;6.30;99.90
52471;DHT22;38382;53.160;7.026;2022-12-24T18:32:54;6.20;99.90
52471;DHT22;38382;53.160;7.026;2022-12-24T18:35:21;6.20;99.90
52471;DHT22;38382;53.160;7.026;2022-12-24T18:37:47;6.20;99.90
52471;DHT22;38382;53.160;7.026;2022-12-24T18:40:12;6.20;99.90
52471;DHT22;38382;53.160;7.026;2022-12-24T18:42:41;6.20;99.90
52471;DHT22;38382;53.160;7.026;2022-12-24T18:45:08;6.20;99.90
52471;DHT22;38382;53.160;7.026;2022-12-24T18:47:34;6.20;99.90
52471;DHT22;38382;53.160;7.026;2022-12-24T18:50:02;6.20;99.90
52471;DHT22;38382;53.160;7.026;2022-12-24T18:52:28;6.20;99.90
52471;DHT22;38382;53.160;7.026;2022-12-24T18:54:57;6.20;99.90
52471;DHT22;38382;53.160;7.026;2022-12-24T18:57:22;6.10;99.90
52471;DHT22;38382;53.160;7.026;2022-12-24T18:59:48;6.10;99.90
52471;DHT22;38382;53.160;7.026;2022-12-24T19:02:14;6.10;99.90
52471;DHT22;38382;53.160;7.026;2022-12-24T19:04:43;6.50;99.90
52471;DHT22;38382;53.160;7.026;2022-12-24T19:07:08;6.00;99.90
52471;DHT22;38382;53.160;7.026;2022-12-24T19:09:34;6.00;99.90
52471;DHT22;38382;53.160;7.026;2022-12-24T19:12:00;5.90;99.90
52471;DHT22;38382;53.160;7.026;2022-12-24T19:14:26;5.90;99.90
52471;DHT22;38382;53.160;7.026;2022-12-24T19:16:51;5.80;99.90
52471;DHT22;38382;53.160;7.026;2022-12-24T19:19:17;5.90;99.90
52471;DHT22;38382;53.160;7.026;2022-12-24T19:21:48;5.80;99.90
52471;DHT22;38382;53.160;7.026;2022-12-24T19:24:14;5.70;99.90
52471;DHT22;38382;53.160;7.026;2022-12-24T19:26:40;5.70;99.90
52471;DHT22;38382;53.160;7.026;2022-12-24T19:29:05;5.90;99.90
52471;DHT22;38382;53.160;7.026;2022-12-24T19:31:31;5.70;99.90
52471;DHT22;38382;53.160;7.026;2022-12-24T19:33:57;5.60;99.90
52471;DHT22;38382;53.160;7.026;2022-12-24T19:36:28;5.60;99.90
52471;DHT22;38382;53.160;7.026;2022-12-24T19:38:56;5.60;99.90
52471;DHT22;38382;53.160;7.026;2022-12-24T19:41:24;5.60;99.90
52471;DHT22;38382;53.160;7.026;2022-12-24T19:43:52;5.60;99.90
52471;DHT22;38382;53.160;7.026;2022-12-24T19:46:20;5.50;99.90
52471;DHT22;38382;53.160;7.026;2022-12-24T19:48:51;5.50;99.90
52471;DHT22;38382;53.160;7.026;2022-12-24T19:51:17;5.40;99.90
52471;DHT22;38382;53.160;7.026;2022-12-24T19:53:43;5.40;99.90
52471;DHT22;38382;53.160;7.026;2022-12-24T19:56:14;5.40;99.90
52471;DHT22;38382;53.160;7.026;2022-12-24T19:58:41;5.40;99.90
52471;DHT22;38382;53.160;7.026;2022-12-24T20:01:09;5.30;99.90
52471;DHT22;38382;53.160;7.026;2022-12-24T20:03:36;5.40;99.90
52471;DHT22;38382;53.160;7.026;2022-12-24T20:06:01;5.30;99.90
52471;DHT22;38382;53.160;7.026;2022-12-24T20:08:27;5.20;99.90
52471;DHT22;38382;53.160;7.026;2022-12-24T20:10:53;5.20;99.90
52471;DHT22;38382;53.160;7.026;2022-12-24T20:13:19;5.20;99.90
52471;DHT22;38382;53.160;7.026;2022-12-24T20:15:46;5.20;99.90
52471;DHT22;38382;53.160;7.026;2022-12-24T20:18:12;5.10;99.90
52471;DHT22;38382;53.160;7.026;2022-12-24T20:20:39;5.10;99.90
52471;DHT22;38382;53.160;7.026;2022-12-24T20:23:06;5.10;99.90
52471;DHT22;38382;53.160;7.026;2022-12-24T20:25:36;5.10;99.90
52471;DHT22;38382;53.160;7.026;2022-12-24T20:28:02;5.10;99.90
52471;DHT22;38382;53.160;7.026;2022-12-24T20:30:29;5.00;99.90
52471;DHT22;38382;53.160;7.026;2022-12-24T20:32:55;5.00;99.90
52471;DHT22;38382;53.160;7.026;2022-12-24T20:35:24;5.00;99.90
52471;DHT22;38382;53.160;7.026;2022-12-24T20:37:50;4.90;99.90
52471;DHT22;38382;53.160;7.026;2022-12-24T20:40:16;5.00;99.90
52471;DHT22;38382;53.160;7.026;2022-12-24T20:42:41;4.90;99.90
52471;DHT22;38382;53.160;7.026;2022-12-24T20:45:07;4.90;99.90
52471;DHT22;38382;53.160;7.026;2022-12-24T20:47:33;4.80;99.90
52471;DHT22;38382;53.160;7.026;2022-12-24T20:49:59;4.80;99.90
52471;DHT22;38382;53.160;7.026;2022-12-24T20:52:25;4.80;99.90
52471;DHT22;38382;53.160;7.026;2022-12-24T20:54:50;4.80;99.90
52471;DHT22;38382;53.160;7.026;2022-12-24T20:57:16;4.00;99.90
52471;DHT22;38382;53.160;7.026;2022-12-24T20:59:42;4.80;99.90
52471;DHT22;38382;53.160;7.026;2022-12-24T21:02:11;4.90;99.90
52471;DHT22;38382;53.160;7.026;2022-12-24T21:04:37;4.80;99.90
52471;DHT22;38382;53.160;7.026;2022-12-24T21:07:03;4.80;99.90
52471;DHT22;38382;53.160;7.026;2022-12-24T21:09:28;4.80;99.90
52471;DHT22;38382;53.160;7.026;2022-12-24T21:11:54;5.40;99.90
52471;DHT22;38382;53.160;7.026;2022-12-24T21:14:23;4.80;99.90
52471;DHT22;38382;53.160;7.026;2022-12-24T21:16:50;4.70;99.90
52471;DHT22;38382;53.160;7.026;2022-12-24T21:19:19;4.70;99.90
52471;DHT22;38382;53.160;7.026;2022-12-24T21:21:45;4.60;99.90
52471;DHT22;38382;53.160;7.026;2022-12-24T21:24:12;4.80;99.90
52471;DHT22;38382;53.160;7.026;2022-12-24T21:26:38;4.50;99.90
52471;DHT22;38382;53.160;7.026;2022-12-24T21:29:04;4.50;99.90
52471;DHT22;38382;53.160;7.026;2022-12-24T21:31:31;5.00;99.90
52471;DHT22;38382;53.160;7.026;2022-12-24T21:33:57;4.50;99.90
52471;DHT22;38382;53.160;7.026;2022-12-24T21:36:23;5.10;99.90
52471;DHT22;38382;53.160;7.026;2022-12-24T21:38:49;5.70;99.90
52471;DHT22;38382;53.160;7.026;2022-12-24T21:41:18;4.60;99.90
52471;DHT22;38382;53.160;7.026;2022-12-24T21:43:45;4.60;99.90
52471;DHT22;38382;53.160;7.026;2022-12-24T21:46:19;4.70;99.90
52471;DHT22;38382;53.160;7.026;2022-12-24T21:48:51;4.70;99.90
52471;DHT22;38382;53.160;7.026;2022-12-24T21:51:36;4.70;99.90
52471;DHT22;38382;53.160;7.026;2022-12-24T21:54:03;4.50;99.90
52471;DHT22;38382;53.160;7.026;2022-12-24T21:56:55;4.70;99.90
52471;DHT22;38382;53.160;7.026;2022-12-24T21:59:39;4.60;99.90
52471;DHT22;38382;53.160;7.026;2022-12-24T22:02:06;4.60;99.90
52471;DHT22;38382;53.160;7.026;2022-12-24T22:04:33;4.70;99.90
52471;DHT22;38382;53.160;7.026;2022-12-24T22:06:58;4.70;99.90
52471;DHT22;38382;53.160;7.026;2022-12-24T22:09:49;4.60;99.90
52471;DHT22;38382;53.160;7.026;2022-12-24T22:12:34;4.70;99.90
52471;DHT22;38382;53.160;7.026;2022-12-24T22:15:00;4.70;99.90
52471;DHT22;38382;53.160;7.026;2022-12-24T22:17:27;4.60;99.90
52471;DHT22;38382;53.160;7.026;2022-12-24T22:19:53;4.60;99.90
52471;DHT22;38382;53.160;7.026;2022-12-24T22:22:19;5.20;99.90
52471;DHT22;38382;53.160;7.026;2022-12-24T22:24:48;4.50;99.90
52471;DHT22;38382;53.160;7.026;2022-12-24T22:27:14;4.60;99.90
52471;DHT22;38382;53.160;7.026;2022-12-24T22:29:39;4.60;99.90
52471;DHT22;38382;53.160;7.026;2022-12-24T22:32:05;4.60;99.90
52471;DHT22;38382;53.160;7.026;2022-12-24T22:34:31;4.50;99.90
52471;DHT22;38382;53.160;7.026;2022-12-24T22:36:57;4.50;99.90
52471;DHT22;38382;53.160;7.026;2022-12-24T22:39:23;4.50;99.90
52471;DHT22;38382;53.160;7.026;2022-12-24T22:41:50;4.50;99.90
52471;DHT22;38382;53.160;7.026;2022-12-24T22:44:17;4.50;99.90
52471;DHT22;38382;53.160;7.026;2022-12-24T22:46:43;4.50;99.90
52471;DHT22;38382;53.160;7.026;2022-12-24T22:49:09;4.80;99.90
52471;DHT22;38382;53.160;7.026;2022-12-24T22:51:35;4.40;99.90
52471;DHT22;38382;53.160;7.026;2022-12-24T22:54:02;4.90;99.90
52471;DHT22;38382;53.160;7.026;2022-12-24T22:56:28;4.40;99.90
52471;DHT22;38382;53.160;7.026;2022-12-24T22:58:54;4.40;99.90
52471;DHT22;38382;53.160;7.026;2022-12-24T23:01:33;4.40;99.90
52471;DHT22;38382;53.160;7.026;2022-12-24T23:03:59;5.40;99.90
52471;DHT22;38382;53.160;7.026;2022-12-24T23:06:25;4.30;99.90
52471;DHT22;38382;53.160;7.026;2022-12-24T23:08:51;4.90;99.90
52471;DHT22;38382;53.160;7.026;2022-12-24T23:11:17;5.10;99.90
52471;DHT22;38382;53.160;7.026;2022-12-24T23:13:45;4.20;99.90
52471;DHT22;38382;53.160;7.026;2022-12-24T23:16:31;4.20;99.90
52471;DHT22;38382;53.160;7.026;2022-12-24T23:18:59;4.40;99.90
52471;DHT22;38382;53.160;7.026;2022-12-24T23:21:25;4.20;99.90
52471;DHT22;38382;53.160;7.026;2022-12-24T23:23:51;4.60;99.90
52471;DHT22;38382;53.160;7.026;2022-12-24T23:26:19;4.20;99.90
52471;DHT22;38382;53.160;7.026;2022-12-24T23:28:45;4.20;99.90
52471;DHT22;38382;53.160;7.026;2022-12-24T23:31:19;4.60;99.90
52471;DHT22;38382;53.160;7.026;2022-12-24T23:33:46;4.10;99.90
52471;DHT22;38382;53.160;7.026;2022-12-24T23:36:13;4.10;99.90
52471;DHT22;38382;53.160;7.026;2022-12-24T23:38:39;4.40;99.90
52471;DHT22;38382;53.160;7.026;2022-12-24T23:41:07;4.10;99.90
52471;DHT22;38382;53.160;7.026;2022-12-24T23:43:33;4.00;99.90
52471;DHT22;38382;53.160;7.026;2022-12-24T23:45:59;4.10;99.90
52471;DHT22;38382;53.160;7.026;2022-12-24T23:48:25;4.10;99.90
52471;DHT22;38382;53.160;7.026;2022-12-24T23:50:51;4.10;99.90
52471;DHT22;38382;53.160;7.026;2022-12-24T23:53:18;4.00;99.90
52471;DHT22;38382;53.160;7.026;2022-12-24T23:55:44;4.10;99.90
52471;DHT22;38382;53.160;7.026;2022-12-24T23:58:13;4.70;99.90
